Richland Hills, Texas
Current Conditions -  °F | °C
As of 8:08 PM on Saturday 20 Dec 2014 (Local Time) from KFTW Reporting Station
Haze Haze  
Wind Chill: 45°   Ceiling: 1500
Heat Index: 48°   Visibility: 4mi
Dew Point: 43°   Wind: 6mph
Humidity: 83%   Direction: 120°ESE
Pressure: 30.17"   Gusts: NA
Location:  32.8656°N, 97.2164°W
Report Text: KFTW 210208Z 12005KT 4SM HZ BKN015 OVC027 09/06 A3017 RMK AO2 T00890061
Loading
Personal Weather Stations






























Interactive Weather Map New forecast layout! Learn more

10-Day Weather Forecast

Advertisements
Track Severe Weather on mobile